createdAt,value
2019-04-05T00:00:24.322Z,4.43
2019-04-05T00:02:54.701Z,5.33
2019-04-05T00:05:26.789Z,5.03
2019-04-05T00:07:56.013Z,4.73
2019-04-05T00:10:25.266Z,4.97
2019-04-05T00:12:54.408Z,4.87
2019-04-05T00:15:23.470Z,4.93
2019-04-05T00:17:52.354Z,4.87
2019-04-05T00:20:23.184Z,5.57
2019-04-05T00:22:52.140Z,5.63
2019-04-05T00:25:21.287Z,4.17
2019-04-05T00:27:51.799Z,4.50
2019-04-05T00:30:24.017Z,4.80
2019-04-05T00:32:54.073Z,4.87
2019-04-05T00:35:25.051Z,4.73
2019-04-05T00:37:57.038Z,4.40
2019-04-05T00:40:27.184Z,4.77
2019-04-05T00:42:56.133Z,5.20
2019-04-05T00:45:30.717Z,4.93
2019-04-05T00:48:02.571Z,4.83
2019-04-05T00:50:33.473Z,4.93
2019-04-05T00:53:02.840Z,4.80
2019-04-05T00:55:34.280Z,4.23
2019-04-05T00:58:04.514Z,4.03
2019-04-05T01:00:33.672Z,5.30
2019-04-05T01:03:03.376Z,4.67
2019-04-05T01:05:32.556Z,5.53
2019-04-05T01:08:01.924Z,5.10
2019-04-05T01:10:50.100Z,5.03
2019-04-05T01:13:19.011Z,4.80
2019-04-05T01:15:47.741Z,5.17
2019-04-05T01:18:16.823Z,4.73
2019-04-05T01:20:48.595Z,5.57
2019-04-05T01:23:20.990Z,4.73
2019-04-05T01:25:51.651Z,5.07
2019-04-05T01:28:20.813Z,5.20
2019-04-05T01:30:49.967Z,5.33
2019-04-05T01:33:18.828Z,5.17
2019-04-05T01:35:47.645Z,5.53
2019-04-05T01:38:18.217Z,5.70
2019-04-05T01:40:47.417Z,5.33
2019-04-05T01:43:16.449Z,4.50
2019-04-05T01:45:53.648Z,4.53
2019-04-05T01:48:17.458Z,5.20
2019-04-05T01:50:46.264Z,5.53
2019-04-05T01:53:15.196Z,5.83
2019-04-05T01:55:44.023Z,6.43
2019-04-05T01:58:12.832Z,4.97
2019-04-05T02:00:41.715Z,4.73
2019-04-05T02:03:10.596Z,5.27
2019-04-05T02:05:39.424Z,5.20
2019-04-05T02:08:08.557Z,5.20
2019-04-05T02:10:37.284Z,5.10
2019-04-05T02:13:06.100Z,5.30
2019-04-05T02:15:37.413Z,5.30
2019-04-05T02:18:06.328Z,5.40
2019-04-05T02:20:54.567Z,5.30
2019-04-05T02:23:23.420Z,5.10
2019-04-05T02:25:52.136Z,4.63
2019-04-05T02:28:21.076Z,4.47
2019-04-05T02:30:49.822Z,5.23
2019-04-05T02:33:21.943Z,4.97
2019-04-05T02:35:50.703Z,4.93
2019-04-05T02:38:21.096Z,5.33
2019-04-05T02:40:51.353Z,5.10
2019-04-05T02:43:21.895Z,4.70
2019-04-05T02:45:52.227Z,5.13
2019-04-05T02:48:21.748Z,4.83
2019-04-05T02:50:53.586Z,5.13
2019-04-05T02:53:22.855Z,5.53
2019-04-05T02:55:52.250Z,5.83
2019-04-05T02:58:22.519Z,4.87
2019-04-05T03:00:51.833Z,5.23
2019-04-05T03:03:23.506Z,5.17
2019-04-05T03:05:52.617Z,4.83
2019-04-05T03:08:22.910Z,5.40
2019-04-05T03:11:13.892Z,5.10
2019-04-05T03:13:48.399Z,5.27
2019-04-05T03:16:20.289Z,5.80
2019-04-05T03:18:52.263Z,5.27
2019-04-05T03:21:23.711Z,5.70
2019-04-05T03:23:54.582Z,6.00
2019-04-05T03:26:26.434Z,5.67
2019-04-05T03:28:58.284Z,5.80
2019-04-05T03:31:27.572Z,5.40
2019-04-05T03:33:57.217Z,5.30
2019-04-05T03:36:27.144Z,4.97
2019-04-05T03:38:56.675Z,4.77
2019-04-05T03:41:25.423Z,5.30
2019-04-05T03:43:54.825Z,4.70
2019-04-05T03:46:23.744Z,5.60
2019-04-05T03:48:52.630Z,4.93
2019-04-05T03:51:21.773Z,5.80
2019-04-05T03:53:54.599Z,5.80
2019-04-05T03:56:23.824Z,4.60
2019-04-05T03:58:52.760Z,5.30
2019-04-05T04:01:22.085Z,4.53
2019-04-05T04:03:50.984Z,5.47
2019-04-05T04:06:19.931Z,5.47
2019-04-05T04:08:48.653Z,5.00
2019-04-05T04:11:17.604Z,5.07
2019-04-05T04:13:46.609Z,5.23
2019-04-05T04:16:15.466Z,5.80
2019-04-05T04:18:45.050Z,5.20
2019-04-05T04:21:31.901Z,4.63
2019-04-05T04:24:01.140Z,5.30
2019-04-05T04:26:30.149Z,5.37
2019-04-05T04:28:59.201Z,5.53
2019-04-05T04:31:28.455Z,5.90
2019-04-05T04:33:58.042Z,4.93
2019-04-05T04:36:30.036Z,5.33
2019-04-05T04:38:58.862Z,4.80
2019-04-05T04:41:27.608Z,5.10
2019-04-05T04:43:56.567Z,5.77
2019-04-05T04:46:25.361Z,4.97
2019-04-05T04:48:55.211Z,4.77
2019-04-05T04:51:24.867Z,5.43
2019-04-05T04:53:54.392Z,5.57
2019-04-05T04:56:23.425Z,5.30
2019-04-05T04:58:52.516Z,5.80
2019-04-05T05:01:21.524Z,5.30
2019-04-05T05:03:50.478Z,5.03
2019-04-05T05:06:20.814Z,5.80
2019-04-05T05:08:49.653Z,6.20
2019-04-05T05:11:18.751Z,5.43
2019-04-05T05:13:47.728Z,5.20
2019-04-05T05:16:17.166Z,5.50
2019-04-05T05:18:46.166Z,5.20
2019-04-05T05:21:15.512Z,5.63
2019-04-05T05:23:44.434Z,5.13
2019-04-05T05:26:13.407Z,6.03
2019-04-05T05:28:42.620Z,5.83
2019-04-05T05:31:11.554Z,5.43
2019-04-05T05:33:40.355Z,5.83
2019-04-05T05:36:10.595Z,5.60
2019-04-05T05:38:39.524Z,5.27
2019-04-05T05:41:08.334Z,6.23
2019-04-05T05:43:37.351Z,5.97
2019-04-05T05:46:06.107Z,5.30
2019-04-05T05:48:35.059Z,5.77
2019-04-05T05:51:03.977Z,7.00
2019-04-05T05:53:35.491Z,5.63
2019-04-05T05:56:04.427Z,5.83
2019-04-05T05:58:35.892Z,6.67
2019-04-05T06:01:04.673Z,5.33
2019-04-05T06:03:36.252Z,6.83
2019-04-05T06:06:05.261Z,5.93
2019-04-05T06:08:34.072Z,6.33
2019-04-05T06:11:05.551Z,6.17
2019-04-05T06:13:35.452Z,6.67
2019-04-05T06:16:04.234Z,6.10
2019-04-05T06:18:34.516Z,5.13
2019-04-05T06:21:03.654Z,5.40
2019-04-05T06:23:34.435Z,5.53
2019-04-05T06:26:05.034Z,6.37
2019-04-05T06:28:33.968Z,5.70
2019-04-05T06:31:05.449Z,5.50
2019-04-05T06:33:35.796Z,6.27
2019-04-05T06:36:04.754Z,6.40
2019-04-05T06:38:35.277Z,5.97
2019-04-05T06:41:04.718Z,6.13
2019-04-05T06:43:33.438Z,5.67
2019-04-05T06:46:02.514Z,6.43
2019-04-05T06:48:31.595Z,7.00
2019-04-05T06:51:00.422Z,5.50
2019-04-05T06:53:29.441Z,6.53
2019-04-05T06:55:59.767Z,6.27
2019-04-05T06:58:29.294Z,6.27
2019-04-05T07:00:58.411Z,6.07
2019-04-05T07:03:27.235Z,6.70
2019-04-05T07:05:56.106Z,6.20
2019-04-05T07:08:25.051Z,7.27
2019-04-05T07:10:53.762Z,6.83
2019-04-05T07:13:24.041Z,6.37
2019-04-05T07:15:53.133Z,5.30
2019-04-05T07:18:32.674Z,5.97
2019-04-05T07:20:52.451Z,5.67
2019-04-05T07:23:21.563Z,6.53
2019-04-05T07:25:50.387Z,6.20
2019-04-05T07:28:19.429Z,6.70
2019-04-05T07:30:48.226Z,6.07
2019-04-05T07:33:17.057Z,6.07
2019-04-05T07:35:45.835Z,6.57
2019-04-05T07:38:14.575Z,6.30
2019-04-05T07:40:43.578Z,6.03
2019-04-05T07:43:12.439Z,6.30
2019-04-05T07:45:41.273Z,5.90
2019-04-05T07:48:10.352Z,6.03
2019-04-05T07:50:39.198Z,6.03
2019-04-05T07:53:07.974Z,6.30
2019-04-05T07:55:36.814Z,6.17
2019-04-05T07:58:05.572Z,5.73
2019-04-05T08:00:49.608Z,6.80
2019-04-05T08:03:18.495Z,6.07
2019-04-05T08:05:48.822Z,6.97
2019-04-05T08:08:20.616Z,7.07
2019-04-05T08:10:49.546Z,6.00
2019-04-05T08:13:19.090Z,6.47
2019-04-05T08:15:47.999Z,6.47
2019-04-05T08:18:16.875Z,5.83
2019-04-05T08:20:45.693Z,5.97
2019-04-05T08:23:14.616Z,6.10
2019-04-05T08:25:43.419Z,5.97
2019-04-05T08:28:12.225Z,6.00
2019-04-05T08:30:41.259Z,7.60
2019-04-05T08:33:10.010Z,6.37
2019-04-05T08:35:38.846Z,5.50
2019-04-05T08:38:07.926Z,6.63
2019-04-05T08:40:36.731Z,6.10
2019-04-05T08:43:05.546Z,6.20
2019-04-05T08:45:34.386Z,6.33
2019-04-05T08:48:04.714Z,6.73
2019-04-05T08:50:33.526Z,7.47
2019-04-05T08:53:02.394Z,6.50
2019-04-05T08:55:31.412Z,7.00
2019-04-05T08:58:00.274Z,5.57
2019-04-05T09:00:29.112Z,9.17
2019-04-05T09:02:57.989Z,6.60
2019-04-05T09:05:26.960Z,7.37
2019-04-05T09:07:55.850Z,6.70
2019-04-05T09:10:24.655Z,6.73
2019-04-05T09:12:53.497Z,5.97
2019-04-05T09:15:24.811Z,6.53
2019-04-05T09:17:53.642Z,8.13
2019-04-05T09:20:22.714Z,7.63
2019-04-05T09:22:51.601Z,6.97
2019-04-05T09:25:20.444Z,7.23
2019-04-05T09:27:49.336Z,7.63
2019-04-05T09:30:18.779Z,7.30
2019-04-05T09:32:47.627Z,6.37
2019-04-05T09:35:16.435Z,7.23
2019-04-05T09:37:45.614Z,7.20
2019-04-05T09:40:14.441Z,6.70
2019-04-05T09:42:43.326Z,7.07
2019-04-05T09:45:12.403Z,7.53
2019-04-05T09:47:41.106Z,6.73
2019-04-05T09:50:10.140Z,7.00
2019-04-05T09:52:40.164Z,7.27
2019-04-05T09:55:09.142Z,7.43
2019-04-05T09:57:37.903Z,6.93
2019-04-05T10:00:10.436Z,6.00
2019-04-05T10:02:39.242Z,6.77
2019-04-05T10:05:08.167Z,6.93
2019-04-05T10:07:44.138Z,7.40
2019-04-05T10:10:07.669Z,6.50
2019-04-05T10:12:36.507Z,6.30
2019-04-05T10:15:07.318Z,6.17
2019-04-05T10:17:39.121Z,5.90
2019-04-05T10:20:08.422Z,6.23
2019-04-05T10:22:37.237Z,6.63
2019-04-05T10:25:07.254Z,6.70
2019-04-05T10:27:36.324Z,7.20
2019-04-05T10:30:08.381Z,6.43
2019-04-05T10:32:37.376Z,6.60
2019-04-05T10:35:06.977Z,6.13
2019-04-05T10:37:35.826Z,7.00
2019-04-05T10:40:08.022Z,5.83
2019-04-05T10:42:37.946Z,6.90
2019-04-05T10:45:26.364Z,6.30
2019-04-05T10:47:55.104Z,5.27
2019-04-05T10:50:24.010Z,5.60
2019-04-05T10:52:53.010Z,6.20
2019-04-05T10:55:21.806Z,5.97
2019-04-05T10:57:50.628Z,6.20
2019-04-05T11:00:20.281Z,6.10
2019-04-05T11:02:49.087Z,5.63
2019-04-05T11:05:17.956Z,6.43
2019-04-05T11:07:46.833Z,5.20
2019-04-05T11:10:15.954Z,5.80
2019-04-05T11:12:44.740Z,5.50
2019-04-05T11:15:15.109Z,5.57
2019-04-05T11:17:44.086Z,5.80
2019-04-05T11:20:22.161Z,5.70
2019-04-05T11:22:46.697Z,5.57
2019-04-05T11:25:16.578Z,5.83
2019-04-05T11:27:45.404Z,5.73
2019-04-05T11:30:15.176Z,5.30
2019-04-05T11:32:43.901Z,6.00
2019-04-05T11:35:14.967Z,5.33
2019-04-05T11:37:43.663Z,4.80
2019-04-05T11:40:12.779Z,6.00
2019-04-05T11:42:42.894Z,5.80
2019-04-05T11:45:11.873Z,6.17
2019-04-05T11:47:42.112Z,5.50
2019-04-05T11:50:11.872Z,5.10
2019-04-05T11:52:40.711Z,4.80
2019-04-05T11:55:10.450Z,4.93
2019-04-05T11:57:41.048Z,5.27
2019-04-05T12:00:18.986Z,5.40
2019-04-05T12:02:49.365Z,4.63
2019-04-05T12:05:20.269Z,5.50
2019-04-05T12:07:48.905Z,5.57
2019-04-05T12:10:19.455Z,5.40
2019-04-05T12:12:48.759Z,6.13
2019-04-05T12:15:17.701Z,5.63
2019-04-05T12:17:46.570Z,5.20
2019-04-05T12:20:15.578Z,5.00
2019-04-05T12:22:44.477Z,5.80
2019-04-05T12:25:13.324Z,5.50
2019-04-05T12:27:42.157Z,5.20
2019-04-05T12:30:12.997Z,5.07
2019-04-05T12:32:41.856Z,4.93
2019-04-05T12:35:10.866Z,4.53
2019-04-05T12:37:49.488Z,4.47
2019-04-05T12:40:11.136Z,4.67
2019-04-05T12:42:42.616Z,5.20
2019-04-05T12:45:14.638Z,4.70
2019-04-05T12:47:41.214Z,4.80
2019-04-05T12:50:10.548Z,4.20
2019-04-05T12:52:40.951Z,4.93
2019-04-05T12:55:09.768Z,4.97
2019-04-05T12:57:38.573Z,4.80
2019-04-05T13:00:13.670Z,4.27
2019-04-05T13:02:43.071Z,4.87
2019-04-05T13:05:12.110Z,4.60
2019-04-05T13:07:40.895Z,5.03
2019-04-05T13:10:10.716Z,4.60
2019-04-05T13:12:39.504Z,4.93
2019-04-05T13:15:12.936Z,4.30
2019-04-05T13:17:39.378Z,4.40
2019-04-05T13:20:08.322Z,4.67
2019-04-05T13:22:37.178Z,4.57
2019-04-05T13:25:10.682Z,4.03
2019-04-05T13:27:41.277Z,4.30
2019-04-05T13:30:08.899Z,3.90
2019-04-05T13:32:37.725Z,4.00
2019-04-05T13:35:07.262Z,4.03
2019-04-05T13:37:36.289Z,4.57
2019-04-05T13:40:06.920Z,4.07
2019-04-05T13:42:35.709Z,4.03
2019-04-05T13:45:07.366Z,3.87
2019-04-05T13:47:38.893Z,4.00
2019-04-05T13:50:11.034Z,3.60
2019-04-05T13:52:41.452Z,3.83
2019-04-05T13:55:10.455Z,3.97
2019-04-05T13:58:00.910Z,3.70
2019-04-05T14:00:30.945Z,3.93
2019-04-05T14:02:59.834Z,4.03
2019-04-05T14:05:28.852Z,4.13
2019-04-05T14:08:09.854Z,4.43
2019-04-05T14:10:28.424Z,3.63
2019-04-05T14:12:57.648Z,3.60
2019-04-05T14:15:26.840Z,3.40
2019-04-05T14:17:55.750Z,4.50
2019-04-05T14:20:24.828Z,3.40
2019-04-05T14:22:53.725Z,4.00
2019-04-05T14:25:23.461Z,3.63
2019-04-05T14:27:53.349Z,3.47
2019-04-05T14:30:22.212Z,3.33
2019-04-05T14:32:52.512Z,3.27
2019-04-05T14:35:24.470Z,3.03
2019-04-05T14:37:54.614Z,3.60
2019-04-05T14:40:23.180Z,4.17
2019-04-05T14:42:52.132Z,3.93
2019-04-05T14:45:20.925Z,3.80
2019-04-05T14:47:49.948Z,3.10
2019-04-05T14:50:18.790Z,3.33
2019-04-05T14:52:49.583Z,3.33
2019-04-05T14:55:18.205Z,3.50
2019-04-05T14:57:47.012Z,3.10
2019-04-05T15:00:16.939Z,3.60
2019-04-05T15:02:45.964Z,3.00
2019-04-05T15:05:15.198Z,3.33
2019-04-05T15:07:44.065Z,4.03
2019-04-05T15:10:13.165Z,3.20
2019-04-05T15:12:42.073Z,2.97
2019-04-05T15:15:11.138Z,3.00
2019-04-05T15:17:47.800Z,2.70
2019-04-05T15:20:11.157Z,2.93
2019-04-05T15:22:42.177Z,3.47
2019-04-05T15:25:11.420Z,3.00
2019-04-05T15:27:40.495Z,3.17
2019-04-05T15:30:09.848Z,3.07
2019-04-05T15:32:38.954Z,2.87
2019-04-05T15:35:08.923Z,3.03
2019-04-05T15:37:38.406Z,3.23
2019-04-05T15:40:08.322Z,3.10
2019-04-05T15:42:37.240Z,2.97
2019-04-05T15:45:09.473Z,3.67
2019-04-05T15:47:38.740Z,2.80
2019-04-05T15:50:08.354Z,2.83
2019-04-05T15:52:37.379Z,2.80
2019-04-05T15:55:06.959Z,3.30
2019-04-05T15:57:35.948Z,3.33
2019-04-05T16:00:10.457Z,3.13
2019-04-05T16:02:39.478Z,3.43
2019-04-05T16:05:09.031Z,3.43
2019-04-05T16:07:38.046Z,3.37
2019-04-05T16:10:11.175Z,3.33
2019-04-05T16:12:40.224Z,2.80
2019-04-05T16:15:09.949Z,3.23
2019-04-05T16:17:38.809Z,2.67
2019-04-05T16:20:10.919Z,2.70
2019-04-05T16:22:39.862Z,3.50
2019-04-05T16:25:09.165Z,2.83
2019-04-05T16:27:38.227Z,3.10
2019-04-05T16:30:08.375Z,2.73
2019-04-05T16:32:37.188Z,3.30
2019-04-05T16:35:06.918Z,3.50
2019-04-05T16:37:35.777Z,4.07
2019-04-05T16:40:06.687Z,3.20
2019-04-05T16:42:36.039Z,3.10
2019-04-05T16:45:12.720Z,3.30
2019-04-05T16:47:41.750Z,3.53
2019-04-05T16:50:11.295Z,3.40
2019-04-05T16:52:45.013Z,3.30
2019-04-05T16:55:11.693Z,3.50
2019-04-05T16:57:40.487Z,3.37
2019-04-05T17:00:12.244Z,3.37
2019-04-05T17:02:41.092Z,3.70
2019-04-05T17:05:10.336Z,3.83
2019-04-05T17:07:39.336Z,4.23
2019-04-05T17:10:08.290Z,4.30
2019-04-05T17:12:37.277Z,3.70
2019-04-05T17:15:07.764Z,3.93
2019-04-05T17:17:36.654Z,4.07
2019-04-05T17:20:06.691Z,3.67
2019-04-05T17:22:35.710Z,3.20
2019-04-05T17:25:06.275Z,3.33
2019-04-05T17:27:35.215Z,4.23
2019-04-05T17:30:06.171Z,3.80
2019-04-05T17:32:35.062Z,4.03
2019-04-05T17:35:05.454Z,4.00
2019-04-05T17:37:34.451Z,3.93
2019-04-05T17:40:06.742Z,3.87
2019-04-05T17:42:35.852Z,4.13
2019-04-05T17:45:07.331Z,4.30
2019-04-05T17:47:36.193Z,4.43
2019-04-05T17:50:06.801Z,3.90
2019-04-05T17:52:35.694Z,4.37
2019-04-05T17:55:04.923Z,3.80
2019-04-05T17:57:34.199Z,3.70
2019-04-05T18:00:04.837Z,3.87
2019-04-05T18:02:33.706Z,3.80
2019-04-05T18:05:06.764Z,2.83
2019-04-05T18:07:35.619Z,3.10
2019-04-05T18:10:06.041Z,4.47
2019-04-05T18:12:34.971Z,3.20
2019-04-05T18:15:03.990Z,3.07
2019-04-05T18:17:33.055Z,2.80
2019-04-05T18:20:02.003Z,3.40
2019-04-05T18:22:31.300Z,3.27
2019-04-05T18:25:01.343Z,3.87
2019-04-05T18:27:30.370Z,3.73
2019-04-05T18:29:59.372Z,3.10
2019-04-05T18:32:31.132Z,3.10
2019-04-05T18:34:59.496Z,3.40
2019-04-05T18:37:28.638Z,3.63
2019-04-05T18:39:57.673Z,3.53
2019-04-05T18:42:26.521Z,3.30
2019-04-05T18:44:55.466Z,3.40
2019-04-05T18:47:24.485Z,3.90
2019-04-05T18:50:02.750Z,3.50
2019-04-05T18:52:24.115Z,3.80
2019-04-05T18:54:53.217Z,3.53
2019-04-05T18:57:22.109Z,3.90
2019-04-05T18:59:50.952Z,3.83
2019-04-05T19:02:20.239Z,3.87
2019-04-05T19:04:49.064Z,4.07
2019-04-05T19:07:18.069Z,3.60
2019-04-05T19:09:47.278Z,5.07
2019-04-05T19:12:16.260Z,4.77
2019-04-05T19:14:45.213Z,4.83
2019-04-05T19:17:23.963Z,4.40
2019-04-05T19:19:44.766Z,4.30
2019-04-05T19:22:13.654Z,4.53
2019-04-05T19:24:44.441Z,5.07
2019-04-05T19:27:13.330Z,5.57
2019-04-05T19:29:42.523Z,5.20
2019-04-05T19:49:47.556Z,5.30
2019-04-05T19:52:16.419Z,5.50
2019-04-05T19:54:45.524Z,5.67
2019-04-05T19:57:14.414Z,5.23
2019-04-05T19:59:43.206Z,5.07
2019-04-05T20:02:12.221Z,5.43
2019-04-05T20:04:41.159Z,5.50
2019-04-05T20:07:09.977Z,4.77
2019-04-05T20:09:39.120Z,6.60
2019-04-05T20:12:07.935Z,5.70
2019-04-05T20:14:36.775Z,6.13
2019-04-05T20:17:05.739Z,5.77
2019-04-05T20:19:34.604Z,6.37
2019-04-05T20:22:03.492Z,5.87
2019-04-05T20:24:32.881Z,6.93
2019-04-05T20:27:03.397Z,5.20
2019-04-05T20:29:32.249Z,6.27
2019-04-05T20:32:01.551Z,5.73
2019-04-05T20:34:30.505Z,6.43
2019-04-05T20:36:59.456Z,5.20
2019-04-05T20:39:28.453Z,6.40
2019-04-05T20:41:57.518Z,6.03
2019-04-05T20:44:26.362Z,5.47
2019-04-05T20:46:55.441Z,6.43
2019-04-05T20:49:24.222Z,6.20
2019-04-05T20:51:53.023Z,5.87
2019-04-05T20:54:24.869Z,5.80
2019-04-05T20:56:52.612Z,6.03
2019-04-05T20:59:21.489Z,6.07
2019-04-05T21:01:50.480Z,5.87
2019-04-05T21:04:19.339Z,5.57
2019-04-05T21:06:48.283Z,6.07
2019-04-05T21:09:17.378Z,5.77
2019-04-05T21:11:46.319Z,5.80
2019-04-05T21:14:15.243Z,5.93
2019-04-05T21:16:44.492Z,5.80
2019-04-05T21:19:13.344Z,5.80
2019-04-05T21:21:42.192Z,6.30
2019-04-05T21:24:11.212Z,5.70
2019-04-05T21:26:40.090Z,5.07
2019-04-05T21:29:08.955Z,6.13
2019-04-05T21:31:38.034Z,6.23
2019-04-05T21:34:07.033Z,6.00
2019-04-05T21:36:35.905Z,6.63
2019-04-05T21:39:07.423Z,5.70
2019-04-05T21:41:36.265Z,6.63
2019-04-05T21:44:05.215Z,7.23
2019-04-05T21:46:34.361Z,5.93
2019-04-05T21:49:03.413Z,6.17
2019-04-05T21:51:32.641Z,5.70
2019-04-05T21:54:03.218Z,6.57
2019-04-05T21:56:32.198Z,5.63
2019-04-05T21:59:01.511Z,6.77
2019-04-05T22:01:31.368Z,6.97
2019-04-05T22:04:00.462Z,6.00
2019-04-05T22:06:29.429Z,6.57
2019-04-05T22:08:58.421Z,6.53
2019-04-05T22:11:27.963Z,6.83
2019-04-05T22:13:56.822Z,6.90
2019-04-05T22:16:25.924Z,5.77
2019-04-05T22:18:55.174Z,5.50
2019-04-05T22:21:24.085Z,5.63
2019-04-05T22:23:53.170Z,6.20
2019-04-05T22:26:21.988Z,6.17
2019-04-05T22:28:51.318Z,6.60
2019-04-05T22:31:20.184Z,6.60
2019-04-05T22:33:49.089Z,6.90
2019-04-05T22:36:17.961Z,6.10
2019-04-05T22:38:46.973Z,6.20
2019-04-05T22:41:15.849Z,6.00
2019-04-05T22:43:44.736Z,6.37
2019-04-05T22:46:13.823Z,6.47
2019-04-05T22:48:42.661Z,6.60
2019-04-05T22:51:11.498Z,7.30
2019-04-05T22:53:40.533Z,7.40
2019-04-05T22:56:09.385Z,6.60
2019-04-05T22:58:38.207Z,6.77
2019-04-05T23:01:07.277Z,6.00
2019-04-05T23:03:36.151Z,6.70
2019-04-05T23:06:04.981Z,6.83
2019-04-05T23:08:33.936Z,6.60
2019-04-05T23:11:02.816Z,7.27
2019-04-05T23:13:32.016Z,7.63
2019-04-05T23:16:01.128Z,6.57
2019-04-05T23:18:30.024Z,6.53
2019-04-05T23:20:59.014Z,7.00
2019-04-05T23:23:27.955Z,6.67
2019-04-05T23:25:56.838Z,7.17
2019-04-05T23:28:25.657Z,6.50
2019-04-05T23:30:54.689Z,7.60
2019-04-05T23:33:23.927Z,6.63
2019-04-05T23:35:52.783Z,6.93
2019-04-05T23:38:21.837Z,6.63
2019-04-05T23:40:50.726Z,6.90
2019-04-05T23:43:19.541Z,6.43
2019-04-05T23:45:48.844Z,7.20
2019-04-05T23:48:17.672Z,6.57
2019-04-05T23:50:46.512Z,6.53
2019-04-05T23:53:15.678Z,7.27
2019-04-05T23:55:44.483Z,6.50
2019-04-05T23:58:13.335Z,6.63
